Time;durP1;ratioP1;P1;durP2;ratioP2;P2;SDS_P1;SDS_P2;PMS_P1;PMS_P2;Temp;Humidity;BMP_temperature;BMP_pressure;BME280_temperature;BME280_humidity;BME280_pressure;Samples;Min_cycle;Max_cycle;Signal;HPM_P1;HPM_P2
2024/02/17 00:00:08;;;;;;;15.67;7.60;;;;;;;;;;5047209;28;20196;-74
2024/02/17 00:02:33;;;;;;;13.93;7.97;;;;;;;;;;5039640;28;20182;-73
2024/02/17 00:04:59;;;;;;;12.70;7.78;;;;;;;;;;5024909;28;20189;-73
2024/02/17 00:07:24;;;;;;;17.35;7.85;;;;;;;;;;5050674;28;20729;-74
2024/02/17 00:09:49;;;;;;;12.02;7.97;;;;;;;;;;5050693;28;20201;-74
2024/02/17 00:12:14;;;;;;;13.60;7.60;;;;;;;;;;5048496;28;20260;-74
2024/02/17 00:14:40;;;;;;;14.40;8.13;;;;;;;;;;5049923;28;20269;-74
2024/02/17 00:17:05;;;;;;;15.23;7.20;;;;;;;;;;5026226;28;20237;-74
2024/02/17 00:19:31;;;;;;;14.77;6.65;;;;;;;;;;5048705;28;20268;-74
2024/02/17 00:21:56;;;;;;;17.50;7.03;;;;;;;;;;5048568;28;20232;-74
2024/02/17 00:24:21;;;;;;;14.07;7.78;;;;;;;;;;5033199;28;20306;-74
2024/02/17 00:26:48;;;;;;;12.65;7.40;;;;;;;;;;5035553;28;20202;-74
2024/02/17 00:29:13;;;;;;;11.68;7.35;;;;;;;;;;5027368;28;20232;-75
2024/02/17 00:31:38;;;;;;;16.52;7.03;;;;;;;;;;5020141;28;22105;-75
2024/02/17 00:34:04;;;;;;;14.23;6.70;;;;;;;;;;5037152;28;20186;-73
2024/02/17 00:36:29;;;;;;;12.27;6.80;;;;;;;;;;5033682;28;20646;-73
2024/02/17 00:38:54;;;;;;;13.98;7.28;;;;;;;;;;5035423;28;20182;-73
2024/02/17 00:41:20;;;;;;;13.07;6.70;;;;;;;;;;5029593;28;20708;-73
2024/02/17 00:43:45;;;;;;;10.13;7.45;;;;;;;;;;5026508;28;20177;-73
2024/02/17 00:46:10;;;;;;;12.70;7.05;;;;;;;;;;5049629;28;20658;-73
2024/02/17 00:48:35;;;;;;;11.43;6.70;;;;;;;;;;5053261;28;20185;-73
2024/02/17 00:51:00;;;;;;;13.88;7.00;;;;;;;;;;5047909;28;20205;-73
2024/02/17 00:53:26;;;;;;;17.50;9.27;;;;;;;;;;5040657;28;20205;-73
2024/02/17 00:55:51;;;;;;;11.23;7.00;;;;;;;;;;5033725;28;20228;-73
2024/02/17 00:58:16;;;;;;;10.02;7.18;;;;;;;;;;5044308;28;20228;-73
2024/02/17 01:00:41;;;;;;;14.83;7.10;;;;;;;;;;5033345;28;20186;-73
2024/02/17 01:03:07;;;;;;;12.10;6.78;;;;;;;;;;5042835;28;20252;-73
2024/02/17 01:05:32;;;;;;;18.98;6.50;;;;;;;;;;5046981;28;20188;-73
2024/02/17 01:07:58;;;;;;;10.30;6.20;;;;;;;;;;5032401;28;20209;-73
2024/02/17 01:10:23;;;;;;;13.48;7.63;;;;;;;;;;5042960;28;20209;-73
2024/02/17 01:12:48;;;;;;;14.17;7.70;;;;;;;;;;5046216;28;20680;-73
2024/02/17 01:15:14;;;;;;;11.40;6.30;;;;;;;;;;5026810;28;20180;-73
2024/02/17 01:17:39;;;;;;;8.98;5.75;;;;;;;;;;5043049;28;20708;-74
2024/02/17 01:20:05;;;;;;;7.88;5.70;;;;;;;;;;5047236;28;20197;-74
2024/02/17 01:22:30;;;;;;;7.32;5.20;;;;;;;;;;5047646;28;20210;-73
2024/02/17 01:24:55;;;;;;;15.10;6.07;;;;;;;;;;5043473;28;20561;-74
2024/02/17 01:27:21;;;;;;;11.88;5.95;;;;;;;;;;5042904;28;20292;-73
2024/02/17 01:29:46;;;;;;;11.93;5.50;;;;;;;;;;5022864;28;20194;-73
2024/02/17 01:32:11;;;;;;;12.23;5.55;;;;;;;;;;5045106;28;20184;-74
2024/02/17 01:34:36;;;;;;;9.13;5.00;;;;;;;;;;5048456;28;20212;-73
2024/02/17 01:37:02;;;;;;;13.07;6.07;;;;;;;;;;5047768;28;20301;-74
2024/02/17 01:39:29;;;;;;;11.63;5.47;;;;;;;;;;5049027;28;20562;-74
2024/02/17 01:41:55;;;;;;;12.67;5.67;;;;;;;;;;5048343;28;20184;-74
2024/02/17 01:44:20;;;;;;;10.18;5.63;;;;;;;;;;5050339;28;20182;-74
2024/02/17 01:46:47;;;;;;;11.80;5.50;;;;;;;;;;5048866;28;20224;-74
2024/02/17 01:49:12;;;;;;;9.27;5.95;;;;;;;;;;5036664;28;20208;-74
2024/02/17 01:51:38;;;;;;;12.60;5.70;;;;;;;;;;5045174;28;20177;-74
2024/02/17 01:54:03;;;;;;;11.00;5.72;;;;;;;;;;5029232;28;20269;-73
2024/02/17 01:56:30;;;;;;;9.00;5.77;;;;;;;;;;5042408;28;20201;-75
2024/02/17 01:58:55;;;;;;;12.67;4.93;;;;;;;;;;5048651;28;20185;-74
2024/02/17 02:01:21;;;;;;;10.27;5.18;;;;;;;;;;5026419;28;20174;-73
2024/02/17 02:03:46;;;;;;;12.63;5.38;;;;;;;;;;5039731;28;20185;-73
2024/02/17 02:06:20;;;;;;;10.57;5.00;;;;;;;;;;5040618;28;20182;-74
2024/02/17 02:08:45;;;;;;;13.45;5.85;;;;;;;;;;5025142;28;20174;-73
2024/02/17 02:11:10;;;;;;;8.45;5.03;;;;;;;;;;5046037;28;20271;-74
2024/02/17 02:13:36;;;;;;;10.93;5.43;;;;;;;;;;5049510;28;20169;-73
2024/02/17 02:16:01;;;;;;;8.50;4.95;;;;;;;;;;5023469;28;20264;-73
2024/02/17 02:18:26;;;;;;;11.37;4.60;;;;;;;;;;5022241;28;20197;-73
2024/02/17 02:20:51;;;;;;;12.47;4.50;;;;;;;;;;5048758;28;20562;-74
2024/02/17 02:23:17;;;;;;;11.53;5.00;;;;;;;;;;5039230;28;20208;-73
2024/02/17 02:25:49;;;;;;;8.25;4.43;;;;;;;;;;5045125;28;20625;-74
2024/02/17 02:28:14;;;;;;;8.93;4.87;;;;;;;;;;5043488;28;20198;-73
2024/02/17 02:30:40;;;;;;;8.18;5.65;;;;;;;;;;5047628;28;20197;-74
2024/02/17 02:33:05;;;;;;;8.27;5.07;;;;;;;;;;5045260;28;20170;-74
2024/02/17 02:35:30;;;;;;;15.83;5.90;;;;;;;;;;5049478;28;20231;-73
2024/02/17 02:37:58;;;;;;;12.20;5.60;;;;;;;;;;5048444;28;20264;-73
2024/02/17 02:40:23;;;;;;;7.53;5.13;;;;;;;;;;5041018;28;20192;-74
2024/02/17 02:42:49;;;;;;;7.53;4.70;;;;;;;;;;5047703;28;20181;-73
2024/02/17 02:45:14;;;;;;;8.48;5.78;;;;;;;;;;5047632;28;20261;-73
2024/02/17 02:50:08;;;;;;;10.43;6.03;;;;;;;;;;5066535;28;20241;-68
2024/02/17 02:52:33;;;;;;;9.00;4.87;;;;;;;;;;5071137;28;20169;-69
2024/02/17 02:54:59;;;;;;;10.55;5.00;;;;;;;;;;5053416;28;20650;-69
2024/02/17 02:57:24;;;;;;;8.83;5.73;;;;;;;;;;5071393;28;20653;-70
2024/02/17 02:59:50;;;;;;;9.18;5.63;;;;;;;;;;5065752;28;20200;-69
2024/02/17 03:02:15;;;;;;;13.25;7.90;;;;;;;;;;5066494;28;20173;-69
2024/02/17 03:04:41;;;;;;;13.37;6.77;;;;;;;;;;5070909;28;20274;-69
2024/02/17 03:07:06;;;;;;;11.90;5.20;;;;;;;;;;5070313;28;20193;-69
2024/02/17 03:09:31;;;;;;;11.70;6.00;;;;;;;;;;5069046;28;20201;-69
2024/02/17 03:11:57;;;;;;;7.70;5.07;;;;;;;;;;5068800;28;20212;-69
2024/02/17 03:14:22;;;;;;;8.75;4.93;;;;;;;;;;5064444;28;20306;-69
2024/02/17 03:16:47;;;;;;;9.75;6.50;;;;;;;;;;5067352;28;20232;-69
2024/02/17 03:19:13;;;;;;;12.30;5.73;;;;;;;;;;5063567;28;20205;-68
2024/02/17 03:21:41;;;;;;;8.82;5.80;;;;;;;;;;5068002;28;20203;-70
2024/02/17 03:24:06;;;;;;;9.45;5.20;;;;;;;;;;5050825;28;20200;-70
2024/02/17 03:26:31;;;;;;;9.65;5.68;;;;;;;;;;5064901;28;20204;-69
2024/02/17 03:28:57;;;;;;;14.23;5.85;;;;;;;;;;5066213;28;20589;-69
2024/02/17 03:31:23;;;;;;;8.33;5.83;;;;;;;;;;5069230;28;20641;-70
2024/02/17 03:33:50;;;;;;;8.10;6.00;;;;;;;;;;5069867;28;20267;-70
2024/02/17 03:36:15;;;;;;;12.05;5.88;;;;;;;;;;5067982;28;20293;-69
2024/02/17 03:38:40;;;;;;;7.90;5.68;;;;;;;;;;5069939;28;20664;-70
2024/02/17 03:41:06;;;;;;;9.63;5.32;;;;;;;;;;5069005;28;20271;-69
2024/02/17 03:43:31;;;;;;;16.97;6.03;;;;;;;;;;5069231;28;20192;-69
2024/02/17 03:45:56;;;;;;;10.48;5.20;;;;;;;;;;5058701;28;20180;-68
2024/02/17 03:48:21;;;;;;;9.70;5.63;;;;;;;;;;5069443;28;20211;-70
2024/02/17 03:50:50;;;;;;;7.43;4.85;;;;;;;;;;5070273;28;20203;-69
2024/02/17 03:53:15;;;;;;;8.70;5.57;;;;;;;;;;5070416;28;20176;-69
2024/02/17 03:55:40;;;;;;;8.45;4.97;;;;;;;;;;5067262;28;20177;-70
2024/02/17 03:58:05;;;;;;;6.65;4.85;;;;;;;;;;5069369;28;20193;-70
2024/02/17 04:00:31;;;;;;;9.73;4.90;;;;;;;;;;5051493;28;20203;-69
2024/02/17 04:02:56;;;;;;;7.18;4.88;;;;;;;;;;5062033;28;20256;-70
2024/02/17 04:05:22;;;;;;;14.33;6.07;;;;;;;;;;5048734;28;20688;-70
2024/02/17 04:07:47;;;;;;;12.77;5.60;;;;;;;;;;5065570;28;20654;-70
2024/02/17 04:10:13;;;;;;;10.15;5.15;;;;;;;;;;5068413;28;20246;-70
2024/02/17 04:12:40;;;;;;;13.47;5.47;;;;;;;;;;5069423;28;20204;-70
2024/02/17 04:15:05;;;;;;;9.27;5.23;;;;;;;;;;5069373;28;20455;-69
2024/02/17 04:17:31;;;;;;;10.47;5.40;;;;;;;;;;5050393;28;20209;-70
2024/02/17 04:19:56;;;;;;;7.53;4.17;;;;;;;;;;5068845;28;20234;-69
2024/02/17 04:22:21;;;;;;;13.73;4.53;;;;;;;;;;5058447;28;20189;-69
2024/02/17 04:24:46;;;;;;;9.23;4.97;;;;;;;;;;5065283;28;20573;-70
2024/02/17 04:27:12;;;;;;;9.53;5.07;;;;;;;;;;5059787;28;20240;-69
2024/02/17 04:29:37;;;;;;;8.83;4.73;;;;;;;;;;5048063;28;20703;-69
2024/02/17 04:32:02;;;;;;;8.30;4.67;;;;;;;;;;5067874;28;20632;-69
2024/02/17 04:34:27;;;;;;;6.63;4.37;;;;;;;;;;5067892;28;20209;-69
2024/02/17 04:36:53;;;;;;;10.47;4.60;;;;;;;;;;5049160;28;20647;-69
2024/02/17 04:39:18;;;;;;;7.83;4.53;;;;;;;;;;5065014;28;20205;-68
2024/02/17 04:41:43;;;;;;;8.30;5.40;;;;;;;;;;5064336;28;20169;-69
2024/02/17 04:44:08;;;;;;;10.40;4.75;;;;;;;;;;5064276;28;20252;-69
2024/02/17 04:46:34;;;;;;;11.20;4.20;;;;;;;;;;5065804;28;20242;-70
2024/02/17 04:49:00;;;;;;;8.43;4.67;;;;;;;;;;5067004;28;20255;-68
2024/02/17 04:51:25;;;;;;;11.07;4.40;;;;;;;;;;5067376;28;20208;-71
2024/02/17 04:53:50;;;;;;;9.43;4.80;;;;;;;;;;5068229;28;20202;-69
2024/02/17 04:56:15;;;;;;;10.03;4.80;;;;;;;;;;5072181;28;20179;-68
2024/02/17 04:58:41;;;;;;;8.57;4.20;;;;;;;;;;5048578;28;20204;-70
2024/02/17 05:01:09;;;;;;;11.77;5.40;;;;;;;;;;5067974;28;20227;-69
2024/02/17 05:03:34;;;;;;;10.88;4.97;;;;;;;;;;5073851;28;20219;-69
2024/02/17 05:06:00;;;;;;;13.90;5.03;;;;;;;;;;5072250;28;20181;-69
2024/02/17 05:08:25;;;;;;;8.25;5.35;;;;;;;;;;5069244;28;20740;-69
2024/02/17 05:10:50;;;;;;;18.23;5.73;;;;;;;;;;5069902;28;20208;-69
2024/02/17 05:13:16;;;;;;;12.52;5.70;;;;;;;;;;5068157;28;20216;-69
2024/02/17 05:15:42;;;;;;;12.33;5.53;;;;;;;;;;5066406;28;20532;-69
2024/02/17 05:18:07;;;;;;;24.23;7.90;;;;;;;;;;5067966;28;20185;-69
2024/02/17 05:20:32;;;;;;;12.57;5.60;;;;;;;;;;5069505;28;20620;-69
2024/02/17 05:22:58;;;;;;;11.57;5.30;;;;;;;;;;5071295;28;20181;-69
2024/02/17 05:25:23;;;;;;;15.07;6.53;;;;;;;;;;5053182;28;20188;-69
2024/02/17 05:27:48;;;;;;;12.20;6.47;;;;;;;;;;5068478;28;20203;-69
2024/02/17 05:30:15;;;;;;;9.93;5.40;;;;;;;;;;5070896;28;20673;-70
2024/02/17 05:32:40;;;;;;;10.35;5.65;;;;;;;;;;5071660;28;20185;-68
2024/02/17 05:35:06;;;;;;;10.43;5.57;;;;;;;;;;5048254;28;20544;-69
2024/02/17 05:37:31;;;;;;;17.60;6.17;;;;;;;;;;5064297;28;20242;-69
2024/02/17 05:39:56;;;;;;;9.53;5.57;;;;;;;;;;5066611;28;20185;-69
2024/02/17 05:42:23;;;;;;;10.90;6.55;;;;;;;;;;5070241;28;20192;-69
2024/02/17 05:44:48;;;;;;;13.97;6.20;;;;;;;;;;5071400;28;20234;-69
2024/02/17 05:47:13;;;;;;;13.68;5.28;;;;;;;;;;5067190;28;20201;-70
2024/02/17 05:49:38;;;;;;;9.27;5.73;;;;;;;;;;5069016;28;20561;-69
2024/02/17 05:52:03;;;;;;;9.67;5.57;;;;;;;;;;5067478;28;20207;-69
2024/02/17 05:54:29;;;;;;;12.57;7.03;;;;;;;;;;5063359;28;20208;-70
2024/02/17 05:56:54;;;;;;;12.47;6.17;;;;;;;;;;5069608;28;20288;-70
2024/02/17 05:59:19;;;;;;;11.60;6.43;;;;;;;;;;5064933;28;20531;-69
2024/02/17 06:01:45;;;;;;;20.67;8.53;;;;;;;;;;5070738;28;20180;-69
2024/02/17 06:04:10;;;;;;;12.07;6.43;;;;;;;;;;5070978;28;20226;-70
2024/02/17 06:06:36;;;;;;;12.63;6.80;;;;;;;;;;5069988;28;20196;-69
2024/02/17 06:09:01;;;;;;;16.03;7.83;;;;;;;;;;5068545;28;20239;-70
2024/02/17 06:11:27;;;;;;;17.57;7.53;;;;;;;;;;5071734;28;20579;-69
2024/02/17 06:13:52;;;;;;;20.10;7.63;;;;;;;;;;5058026;28;20185;-70
2024/02/17 06:16:18;;;;;;;13.47;6.80;;;;;;;;;;5066001;28;20263;-69
2024/02/17 06:21:30;;;;;;;12.90;7.50;;;;;;;;;;5068801;28;20192;-68
2024/02/17 06:23:57;;;;;;;16.10;7.10;;;;;;;;;;5071343;28;20173;-69
2024/02/17 06:26:22;;;;;;;10.80;7.10;;;;;;;;;;5049585;28;20173;-68
2024/02/17 06:28:48;;;;;;;13.40;7.93;;;;;;;;;;5070057;28;20671;-69
2024/02/17 06:31:13;;;;;;;14.47;8.10;;;;;;;;;;5066199;28;20212;-68
2024/02/17 06:33:39;;;;;;;17.77;9.17;;;;;;;;;;5065753;28;20204;-68
2024/02/17 06:36:05;;;;;;;18.30;8.50;;;;;;;;;;5049063;28;20181;-69
2024/02/17 06:38:30;;;;;;;16.13;8.70;;;;;;;;;;5071304;28;20200;-70
2024/02/17 06:40:55;;;;;;;13.70;8.67;;;;;;;;;;5053137;28;20254;-70
2024/02/17 06:43:20;;;;;;;17.93;8.27;;;;;;;;;;5070464;28;20181;-69
2024/02/17 06:45:45;;;;;;;13.00;8.10;;;;;;;;;;5069471;28;20178;-69
2024/02/17 06:48:11;;;;;;;17.53;7.60;;;;;;;;;;5062670;28;20530;-69
2024/02/17 06:50:36;;;;;;;17.17;7.97;;;;;;;;;;5042934;28;20282;-69
2024/02/17 06:53:01;;;;;;;13.03;7.53;;;;;;;;;;5048877;28;20181;-70
2024/02/17 06:55:27;;;;;;;22.03;10.80;;;;;;;;;;5070829;28;20675;-68
2024/02/17 06:57:52;;;;;;;15.40;8.07;;;;;;;;;;5066868;28;20212;-69
2024/02/17 07:00:18;;;;;;;15.30;7.90;;;;;;;;;;5062494;28;20208;-69
2024/02/17 07:02:43;;;;;;;14.73;8.30;;;;;;;;;;5038181;28;20181;-70
2024/02/17 07:05:09;;;;;;;16.20;8.80;;;;;;;;;;5069367;28;20188;-68
2024/02/17 07:07:34;;;;;;;20.20;7.73;;;;;;;;;;5050423;28;20213;-69
2024/02/17 07:10:03;;;;;;;18.60;8.00;;;;;;;;;;5065565;28;20671;-69
2024/02/17 07:12:31;;;;;;;13.83;7.83;;;;;;;;;;5065390;28;20180;-67
2024/02/17 07:14:56;;;;;;;19.43;8.70;;;;;;;;;;5064074;28;20181;-69
2024/02/17 07:17:21;;;;;;;15.33;9.07;;;;;;;;;;5050054;28;20207;-68
2024/02/17 07:19:47;;;;;;;22.03;10.80;;;;;;;;;;5067783;28;20173;-69
2024/02/17 07:22:12;;;;;;;17.13;8.97;;;;;;;;;;5062882;28;20599;-69
2024/02/17 07:24:37;;;;;;;14.37;8.23;;;;;;;;;;5065752;28;20272;-69
2024/02/17 07:27:02;;;;;;;11.93;8.60;;;;;;;;;;5070679;28;20204;-70
2024/02/17 07:29:27;;;;;;;15.20;8.30;;;;;;;;;;5068892;28;20245;-69
2024/02/17 07:31:53;;;;;;;16.73;8.27;;;;;;;;;;5066980;28;20938;-69
2024/02/17 07:34:18;;;;;;;15.10;8.50;;;;;;;;;;5067889;28;20184;-70
2024/02/17 07:36:43;;;;;;;12.87;7.57;;;;;;;;;;5069385;28;20663;-69
2024/02/17 07:39:08;;;;;;;20.90;8.40;;;;;;;;;;5066743;28;20173;-70
2024/02/17 07:41:34;;;;;;;22.77;9.53;;;;;;;;;;5066417;28;20181;-70
2024/02/17 07:43:59;;;;;;;12.60;8.27;;;;;;;;;;5068929;28;20173;-69
2024/02/17 07:46:25;;;;;;;15.43;7.73;;;;;;;;;;5068737;28;20203;-71
2024/02/17 07:48:50;;;;;;;17.20;9.30;;;;;;;;;;5068785;28;20738;-70
2024/02/17 07:51:16;;;;;;;12.77;7.57;;;;;;;;;;5069509;28;20242;-71
2024/02/17 07:53:41;;;;;;;15.17;7.77;;;;;;;;;;5063648;28;20170;-68
2024/02/17 07:56:08;;;;;;;16.03;8.33;;;;;;;;;;5065462;28;20212;-71
2024/02/17 07:58:33;;;;;;;12.48;7.35;;;;;;;;;;5070066;28;20208;-70
2024/02/17 08:00:59;;;;;;;12.35;7.60;;;;;;;;;;5069252;28;20177;-69
2024/02/17 08:03:24;;;;;;;13.37;8.10;;;;;;;;;;5069002;28;20260;-69
2024/02/17 08:05:50;;;;;;;17.37;7.80;;;;;;;;;;5068149;28;20272;-70
2024/02/17 08:08:15;;;;;;;12.07;6.73;;;;;;;;;;5064544;28;20729;-70
2024/02/17 08:10:41;;;;;;;15.93;7.75;;;;;;;;;;5061048;28;20235;-69
2024/02/17 08:13:07;;;;;;;13.93;7.55;;;;;;;;;;5064675;28;20187;-67
2024/02/17 08:15:32;;;;;;;14.82;7.45;;;;;;;;;;5063417;28;20188;-69
2024/02/17 08:17:57;;;;;;;12.90;7.23;;;;;;;;;;5048857;28;20196;-69
2024/02/17 08:20:22;;;;;;;14.60;7.43;;;;;;;;;;5062694;28;20176;-69
2024/02/17 08:22:48;;;;;;;18.35;6.68;;;;;;;;;;5066191;28;20184;-68
2024/02/17 08:25:13;;;;;;;11.20;6.78;;;;;;;;;;5052303;28;20173;-67
2024/02/17 08:27:39;;;;;;;16.35;6.60;;;;;;;;;;5073591;28;20296;-69
2024/02/17 08:30:05;;;;;;;10.00;5.85;;;;;;;;;;5050624;28;20229;-70
2024/02/17 08:32:32;;;;;;;14.48;6.35;;;;;;;;;;5066966;28;20220;-69
2024/02/17 08:34:57;;;;;;;13.43;6.35;;;;;;;;;;5072546;28;20177;-70
2024/02/17 08:37:22;;;;;;;15.70;5.78;;;;;;;;;;5066965;28;20809;-69
2024/02/17 08:39:48;;;;;;;12.00;6.40;;;;;;;;;;5050873;28;20177;-70
2024/02/17 08:42:13;;;;;;;11.50;5.72;;;;;;;;;;5071209;28;20660;-70
2024/02/17 08:44:38;;;;;;;16.67;7.53;;;;;;;;;;5073270;28;20202;-69
2024/02/17 08:47:04;;;;;;;12.30;5.22;;;;;;;;;;5074083;28;20692;-69
2024/02/17 08:49:29;;;;;;;11.43;5.70;;;;;;;;;;5078076;22;20328;-73
2024/02/17 08:51:54;;;;;;;11.07;5.25;;;;;;;;;;5056355;28;20181;-73
2024/02/17 08:54:21;;;;;;;14.65;5.40;;;;;;;;;;5045774;28;20182;-73
2024/02/17 08:56:47;;;;;;;9.52;5.95;;;;;;;;;;5045734;28;20170;-73
2024/02/17 08:59:12;;;;;;;11.55;5.18;;;;;;;;;;5045924;28;20220;-73
2024/02/17 09:01:37;;;;;;;8.95;5.00;;;;;;;;;;5073149;28;20209;-73
2024/02/17 09:04:03;;;;;;;12.23;5.10;;;;;;;;;;5055146;28;20560;-73
2024/02/17 09:06:28;;;;;;;13.82;5.53;;;;;;;;;;5065052;28;20188;-71
2024/02/17 09:08:53;;;;;;;11.48;5.47;;;;;;;;;;5051038;28;20205;-72
2024/02/17 09:11:19;;;;;;;16.20;6.65;;;;;;;;;;5070133;28;20208;-72
2024/02/17 09:13:46;;;;;;;9.07;5.72;;;;;;;;;;5071721;28;20177;-71
2024/02/17 09:16:11;;;;;;;12.15;6.55;;;;;;;;;;5072692;28;20173;-73
2024/02/17 09:18:36;;;;;;;9.60;5.03;;;;;;;;;;5070491;28;20188;-73
2024/02/17 09:21:02;;;;;;;21.25;6.57;;;;;;;;;;5072918;28;20173;-73
2024/02/17 09:23:27;;;;;;;13.52;6.07;;;;;;;;;;5072662;28;20191;-72
2024/02/17 09:25:52;;;;;;;11.85;6.28;;;;;;;;;;5066102;28;20196;-73
2024/02/17 09:28:17;;;;;;;9.85;5.38;;;;;;;;;;5066276;28;20201;-73
2024/02/17 09:30:42;;;;;;;8.65;5.30;;;;;;;;;;5068882;28;20205;-73
2024/02/17 09:33:08;;;;;;;10.00;5.05;;;;;;;;;;5072018;28;20223;-73
2024/02/17 09:35:33;;;;;;;14.00;5.10;;;;;;;;;;5071649;28;20183;-71
2024/02/17 09:37:58;;;;;;;11.70;5.28;;;;;;;;;;5051516;28;20192;-72
2024/02/17 09:40:23;;;;;;;9.95;5.85;;;;;;;;;;5047472;28;20281;-73
2024/02/17 09:42:50;;;;;;;10.95;5.50;;;;;;;;;;5051867;28;20187;-72
2024/02/17 09:45:15;;;;;;;14.88;5.82;;;;;;;;;;5068871;28;20173;-72
2024/02/17 09:47:43;;;;;;;14.82;6.00;;;;;;;;;;5060944;28;20169;-72
2024/02/17 09:50:10;;;;;;;6.38;4.18;;;;;;;;;;5069682;28;20216;-71
2024/02/17 09:52:36;;;;;;;14.02;5.50;;;;;;;;;;5047699;28;20207;-72
2024/02/17 09:55:01;;;;;;;15.70;6.60;;;;;;;;;;5070655;28;20177;-72
2024/02/17 09:57:26;;;;;;;14.07;6.03;;;;;;;;;;5071526;28;20169;-71
2024/02/17 09:59:51;;;;;;;9.98;5.32;;;;;;;;;;5070149;28;20196;-72
2024/02/17 10:02:17;;;;;;;12.85;5.30;;;;;;;;;;5070453;28;20185;-71
2024/02/17 10:04:55;;;;;;;10.02;5.47;;;;;;;;;;5067797;28;20206;-72
2024/02/17 10:07:20;;;;;;;10.93;5.03;;;;;;;;;;5048413;28;20264;-72
2024/02/17 10:09:46;;;;;;;17.30;6.55;;;;;;;;;;5052141;28;20272;-71
2024/02/17 10:12:13;;;;;;;11.85;5.55;;;;;;;;;;5051017;28;20199;-72
2024/02/17 10:14:39;;;;;;;10.85;5.40;;;;;;;;;;5052733;28;20204;-72
2024/02/17 10:17:05;;;;;;;9.88;5.72;;;;;;;;;;5070279;28;20169;-72
2024/02/17 10:19:31;;;;;;;11.35;5.18;;;;;;;;;;5048870;28;20204;-72
2024/02/17 10:21:56;;;;;;;11.45;6.22;;;;;;;;;;5067176;28;20185;-72
2024/02/17 10:24:21;;;;;;;12.02;5.22;;;;;;;;;;5070712;28;20216;-72
2024/02/17 10:26:50;;;;;;;10.93;5.30;;;;;;;;;;5067246;28;20637;-72
2024/02/17 10:29:16;;;;;;;12.13;5.65;;;;;;;;;;5057211;28;20193;-72
2024/02/17 10:31:42;;;;;;;10.07;5.30;;;;;;;;;;5065706;28;20573;-72
2024/02/17 10:34:07;;;;;;;14.93;6.55;;;;;;;;;;5057952;28;20646;-72
2024/02/17 10:36:32;;;;;;;9.20;5.82;;;;;;;;;;5036723;28;20185;-72
2024/02/17 10:39:00;;;;;;;10.77;5.20;;;;;;;;;;5071888;28;20189;-72
2024/02/17 10:41:26;;;;;;;14.20;6.53;;;;;;;;;;5043989;28;20181;-72
2024/02/17 10:43:51;;;;;;;8.57;5.55;;;;;;;;;;5061272;28;20173;-72
2024/02/17 10:46:25;;;;;;;11.20;5.80;;;;;;;;;;5069697;28;20672;-72
2024/02/17 10:48:59;;;;;;;12.45;6.43;;;;;;;;;;5064854;28;20296;-72
2024/02/17 10:51:24;;;;;;;12.45;6.10;;;;;;;;;;5050637;28;20208;-72
2024/02/17 10:53:53;;;;;;;10.50;6.03;;;;;;;;;;5060124;28;20182;-73
2024/02/17 10:56:22;;;;;;;11.55;7.00;;;;;;;;;;5058193;28;20674;-73
2024/02/17 10:58:47;;;;;;;11.43;6.43;;;;;;;;;;5068564;28;20688;-72
2024/02/17 11:01:14;;;;;;;11.82;6.82;;;;;;;;;;5070913;28;20179;-73
2024/02/17 11:03:41;;;;;;;14.05;6.43;;;;;;;;;;5049248;28;20557;-73
2024/02/17 11:06:08;;;;;;;9.95;6.32;;;;;;;;;;5064203;28;20644;-72
2024/02/17 11:08:34;;;;;;;12.25;6.53;;;;;;;;;;5070911;28;20253;-72
2024/02/17 11:11:19;;;;;;;10.88;6.85;;;;;;;;;;5065262;28;20276;-72
2024/02/17 11:13:44;;;;;;;14.15;7.10;;;;;;;;;;5048869;28;20223;-71
2024/02/17 11:16:10;;;;;;;14.40;6.95;;;;;;;;;;5066570;28;20555;-72
2024/02/17 11:18:35;;;;;;;12.40;7.10;;;;;;;;;;5070775;28;20185;-72
2024/02/17 11:21:02;;;;;;;11.38;7.10;;;;;;;;;;5045934;28;20645;-72
2024/02/17 11:23:32;;;;;;;13.90;7.22;;;;;;;;;;5061311;28;20192;-72
2024/02/17 11:25:57;;;;;;;10.00;6.68;;;;;;;;;;5065933;28;20177;-72
2024/02/17 11:28:23;;;;;;;17.50;8.13;;;;;;;;;;5055301;28;20219;-72
2024/02/17 11:30:50;;;;;;;11.13;6.82;;;;;;;;;;5062306;28;20676;-73
2024/02/17 11:33:16;;;;;;;11.32;7.63;;;;;;;;;;5065980;28;20188;-73
2024/02/17 11:35:44;;;;;;;10.73;6.65;;;;;;;;;;5069456;28;20656;-72
2024/02/17 11:38:11;;;;;;;15.25;7.25;;;;;;;;;;5060371;28;20208;-73
2024/02/17 11:40:39;;;;;;;11.00;6.80;;;;;;;;;;5067844;28;20238;-72
2024/02/17 11:43:04;;;;;;;8.57;6.53;;;;;;;;;;5052352;28;20285;-72
2024/02/17 11:45:29;;;;;;;10.35;6.38;;;;;;;;;;5069620;28;20255;-72
2024/02/17 11:47:55;;;;;;;12.02;6.80;;;;;;;;;;5060277;28;20181;-72
2024/02/17 11:50:20;;;;;;;14.10;6.70;;;;;;;;;;5058925;28;20556;-71
2024/02/17 11:52:46;;;;;;;11.18;6.97;;;;;;;;;;5050260;28;20169;-72
2024/02/17 11:55:12;;;;;;;12.57;7.22;;;;;;;;;;5064265;28;20173;-72
2024/02/17 11:57:41;;;;;;;12.07;7.35;;;;;;;;;;5059205;28;20188;-72
2024/02/17 12:00:11;;;;;;;15.02;7.05;;;;;;;;;;5064296;28;20196;-72
2024/02/17 12:02:37;;;;;;;10.52;7.00;;;;;;;;;;5072012;28;20652;-72
2024/02/17 12:05:03;;;;;;;10.93;6.63;;;;;;;;;;5074688;28;20179;-71
2024/02/17 12:07:31;;;;;;;12.65;6.78;;;;;;;;;;5048328;28;20617;-73
2024/02/17 12:09:56;;;;;;;11.35;6.55;;;;;;;;;;5071342;28;20208;-73
2024/02/17 12:12:22;;;;;;;10.88;6.35;;;;;;;;;;5073824;28;20302;-72
2024/02/17 12:14:47;;;;;;;10.15;6.13;;;;;;;;;;5074102;28;20553;-73
2024/02/17 12:17:12;;;;;;;15.63;6.90;;;;;;;;;;5049254;28;20310;-72
2024/02/17 12:19:37;;;;;;;10.20;6.43;;;;;;;;;;5066484;28;20196;-73
2024/02/17 12:22:03;;;;;;;13.30;7.15;;;;;;;;;;5068301;28;20839;-72
2024/02/17 12:24:28;;;;;;;12.30;5.88;;;;;;;;;;5072493;28;20177;-72
2024/02/17 12:26:53;;;;;;;11.15;5.28;;;;;;;;;;5065318;28;20189;-71
2024/02/17 12:29:19;;;;;;;8.55;5.82;;;;;;;;;;5051685;28;20205;-71
2024/02/17 12:31:50;;;;;;;10.55;5.93;;;;;;;;;;5066580;28;20208;-71
2024/02/17 12:34:26;;;;;;;12.75;6.82;;;;;;;;;;5071152;28;20173;-72
2024/02/17 12:36:52;;;;;;;8.75;5.93;;;;;;;;;;5047407;28;20253;-72
2024/02/17 12:39:17;;;;;;;14.40;6.15;;;;;;;;;;5066272;28;20204;-71
2024/02/17 12:41:42;;;;;;;12.65;5.85;;;;;;;;;;5071374;28;20648;-72
2024/02/17 12:44:11;;;;;;;9.13;5.88;;;;;;;;;;5072908;28;20263;-72
2024/02/17 12:46:38;;;;;;;9.23;5.80;;;;;;;;;;5071974;28;20165;-72
2024/02/17 12:49:06;;;;;;;9.45;5.85;;;;;;;;;;5070691;28;20212;-72
2024/02/17 12:51:32;;;;;;;10.48;5.35;;;;;;;;;;5073579;28;20227;-73
2024/02/17 12:53:58;;;;;;;8.20;5.50;;;;;;;;;;5048978;28;20652;-73
2024/02/17 12:56:23;;;;;;;10.13;6.35;;;;;;;;;;5070095;28;20212;-72
2024/02/17 12:58:48;;;;;;;10.35;6.40;;;;;;;;;;5065753;28;20197;-71
2024/02/17 13:01:14;;;;;;;9.93;6.13;;;;;;;;;;5069121;28;20169;-72
2024/02/17 13:03:39;;;;;;;9.88;5.15;;;;;;;;;;5071824;28;20239;-71
2024/02/17 13:06:06;;;;;;;11.15;6.10;;;;;;;;;;5073114;28;20234;-72
2024/02/17 13:08:31;;;;;;;7.13;5.32;;;;;;;;;;5055023;28;20692;-72
2024/02/17 13:10:59;;;;;;;8.88;5.60;;;;;;;;;;5072127;28;20196;-72
2024/02/17 13:13:24;;;;;;;8.88;5.32;;;;;;;;;;5069101;28;20169;-72
2024/02/17 13:15:49;;;;;;;8.57;5.78;;;;;;;;;;5060872;28;20181;-72
2024/02/17 13:18:14;;;;;;;11.98;5.90;;;;;;;;;;5050584;28;20193;-74
2024/02/17 13:20:40;;;;;;;10.00;5.22;;;;;;;;;;5065242;28;20178;-72
2024/02/17 13:23:06;;;;;;;8.38;5.53;;;;;;;;;;5051557;28;20173;-73
2024/02/17 13:25:31;;;;;;;7.32;5.85;;;;;;;;;;5051586;28;20188;-72
2024/02/17 13:27:56;;;;;;;10.25;5.80;;;;;;;;;;5064776;28;20181;-72
2024/02/17 13:30:21;;;;;;;9.82;5.63;;;;;;;;;;5061603;28;20562;-72
2024/02/17 13:32:47;;;;;;;12.20;6.10;;;;;;;;;;5070402;28;20173;-73
2024/02/17 13:35:13;;;;;;;9.52;5.90;;;;;;;;;;5062787;28;20266;-72
2024/02/17 13:37:39;;;;;;;11.68;5.40;;;;;;;;;;5061679;28;20178;-72
2024/02/17 13:40:06;;;;;;;9.07;4.75;;;;;;;;;;5061883;28;20192;-72
2024/02/17 13:42:31;;;;;;;8.93;5.10;;;;;;;;;;5071500;28;20204;-72
2024/02/17 13:44:57;;;;;;;8.00;4.60;;;;;;;;;;5050894;28;20725;-72
2024/02/17 13:47:25;;;;;;;10.30;5.40;;;;;;;;;;5065060;28;20614;-73
2024/02/17 13:49:50;;;;;;;9.63;5.57;;;;;;;;;;5059957;28;20240;-72
2024/02/17 13:52:15;;;;;;;9.88;5.30;;;;;;;;;;5067679;28;20670;-72
2024/02/17 13:54:41;;;;;;;6.22;4.13;;;;;;;;;;5063574;28;20682;-73
2024/02/17 13:57:07;;;;;;;11.40;5.30;;;;;;;;;;5041984;28;20185;-73
2024/02/17 13:59:35;;;;;;;6.97;4.70;;;;;;;;;;5040377;28;20214;-73
2024/02/17 14:02:00;;;;;;;10.35;4.40;;;;;;;;;;5068496;28;20201;-73
2024/02/17 14:04:25;;;;;;;8.80;5.18;;;;;;;;;;5065391;28;20670;-72
2024/02/17 14:06:50;;;;;;;7.35;4.30;;;;;;;;;;5065970;28;20714;-73
2024/02/17 14:09:16;;;;;;;5.88;3.85;;;;;;;;;;5065882;28;20664;-72
2024/02/17 14:11:43;;;;;;;10.98;4.38;;;;;;;;;;5066786;28;20209;-73
2024/02/17 14:14:08;;;;;;;10.50;4.93;;;;;;;;;;5068807;28;20181;-73
2024/02/17 14:16:33;;;;;;;7.20;4.22;;;;;;;;;;5064256;28;20173;-73
2024/02/17 14:18:58;;;;;;;7.75;4.18;;;;;;;;;;5064715;28;20243;-71
2024/02/17 14:21:24;;;;;;;7.25;3.85;;;;;;;;;;5065646;28;20250;-74
2024/02/17 14:23:52;;;;;;;6.85;4.13;;;;;;;;;;5064770;28;20608;-71
2024/02/17 14:26:18;;;;;;;6.10;3.97;;;;;;;;;;5063154;28;20177;-71
2024/02/17 14:28:45;;;;;;;5.68;3.58;;;;;;;;;;5070813;28;20258;-72